Time;durP1;ratioP1;P1;durP2;ratioP2;P2;SDS_P1;SDS_P2;PMS_P1;PMS_P2;Temp;Humidity;BMP_temperature;BMP_pressure;BME280_temperature;BME280_humidity;BME280_pressure;Samples;Min_cycle;Max_cycle;Signal;HPM_P1;HPM_P2
2023/04/10 00:00:24;;;;;;;;;;;;;;;6.14;90.42;95246.19;4937445;29;1046;-50
2023/04/10 00:02:50;;;;;;;;;;;;;;;6.22;89.67;95241.94;4936907;29;1922;-51
2023/04/10 00:05:16;;;;;;;;;;;;;;;6.23;89.78;95240.09;4936820;29;1382;-50
2023/04/10 00:07:42;;;;;;;;;;;;;;;6.11;89.50;95241.16;4937239;29;1106;-50
2023/04/10 00:10:08;;;;;;;;;;;;;;;6.04;89.54;95246.16;4937309;29;1177;-50
2023/04/10 00:12:35;;;;;;;;;;;;;;;6.05;89.97;95240.72;4937394;29;1027;-50
2023/04/10 00:15:01;;;;;;;;;;;;;;;5.97;89.61;95235.19;4937251;29;1168;-50
2023/04/10 00:17:27;;;;;;;;;;;;;;;5.94;90.29;95232.78;4936943;29;1087;-50
2023/04/10 00:19:53;;;;;;;;;;;;;;;6.06;90.38;95228.28;4937202;29;976;-50
2023/04/10 00:22:19;;;;;;;;;;;;;;;5.86;90.10;95224.63;4936855;29;2000;-50
2023/04/10 00:24:45;;;;;;;;;;;;;;;5.82;90.29;95225.88;4937204;29;983;-50
2023/04/10 00:27:11;;;;;;;;;;;;;;;5.80;90.63;95225.16;4936605;29;1078;-50
2023/04/10 00:29:37;;;;;;;;;;;;;;;5.70;91.17;95226.91;4936920;29;1066;-50
2023/04/10 00:32:03;;;;;;;;;;;;;;;5.75;91.05;95230.00;4937120;29;1019;-50
2023/04/10 00:34:30;;;;;;;;;;;;;;;5.87;90.57;95221.84;4936882;29;960;-50
2023/04/10 00:36:57;;;;;;;;;;;;;;;5.87;90.97;95223.66;4936785;29;1182;-50
2023/04/10 00:39:23;;;;;;;;;;;;;;;5.82;90.33;95216.13;4936591;29;1206;-50
2023/04/10 00:41:49;;;;;;;;;;;;;;;5.78;90.49;95219.13;4936654;29;959;-50
2023/04/10 00:44:15;;;;;;;;;;;;;;;5.97;90.77;95223.75;4936761;29;1908;-50
2023/04/10 00:46:41;;;;;;;;;;;;;;;6.02;91.04;95218.91;4936687;29;1217;-50
2023/04/10 00:49:08;;;;;;;;;;;;;;;5.96;89.69;95217.59;4936717;29;1014;-50
2023/04/10 00:51:35;;;;;;;;;;;;;;;6.03;90.51;95217.91;4935754;29;1874;-50
2023/04/10 00:54:02;;;;;;;;;;;;;;;6.09;90.79;95221.84;4936227;29;1102;-50
2023/04/10 00:56:32;;;;;;;;;;;;;;;6.04;91.67;95215.13;4936724;29;1050;-50
2023/04/10 00:58:58;;;;;;;;;;;;;;;6.03;89.93;95216.13;4936767;29;1023;-50
2023/04/10 01:01:24;;;;;;;;;;;;;;;6.09;90.25;95217.41;4936412;29;1365;-50
2023/04/10 01:03:51;;;;;;;;;;;;;;;5.90;90.22;95207.50;4936191;29;1989;-49
2023/04/10 01:06:20;;;;;;;;;;;;;;;5.72;90.96;95209.06;4936432;29;1059;-50
2023/04/10 01:09:01;;;;;;;;;;;;;;;5.80;91.56;95214.53;4941841;29;1236;-50
2023/04/10 01:11:51;;;;;;;;;;;;;;;5.96;90.83;95204.34;4955253;29;1055;-50
2023/04/10 01:14:32;;;;;;;;;;;;;;;6.00;90.88;95199.63;4928539;29;1959;-50
2023/04/10 01:17:11;;;;;;;;;;;;;;;6.05;90.58;95200.91;4936426;29;976;-50
2023/04/10 01:19:37;;;;;;;;;;;;;;;5.91;91.26;95198.53;4936246;29;975;-50
2023/04/10 01:22:04;;;;;;;;;;;;;;;5.88;91.73;95204.13;4935856;29;1114;-50
2023/04/10 01:24:56;;;;;;;;;;;;;;;6.02;91.43;95205.63;4935943;29;1898;-50
2023/04/10 01:27:28;;;;;;;;;;;;;;;6.15;90.83;95208.06;4913738;29;1087;-50
2023/04/10 01:29:56;;;;;;;;;;;;;;;6.22;91.21;95193.28;4935900;29;1031;-50
2023/04/10 01:32:23;;;;;;;;;;;;;;;6.29;90.86;95199.72;4935803;29;1037;-50
2023/04/10 01:34:50;;;;;;;;;;;;;;;6.29;90.80;95199.72;4936145;29;1016;-50
2023/04/10 01:37:20;;;;;;;;;;;;;;;6.34;90.21;95196.69;4936009;29;966;-50
2023/04/10 01:39:48;;;;;;;;;;;;;;;6.39;89.29;95197.97;4936188;29;1027;-50
2023/04/10 01:42:15;;;;;;;;;;;;;;;6.03;91.15;95186.06;4935411;29;2001;-50
2023/04/10 01:44:42;;;;;;;;;;;;;;;6.00;91.85;95195.13;4935974;29;1044;-50
2023/04/10 01:47:08;;;;;;;;;;;;;;;6.13;92.14;95196.72;4936132;29;964;-50
2023/04/10 01:49:41;;;;;;;;;;;;;;;6.25;91.54;95200.97;4935957;29;1050;-50
2023/04/10 01:52:07;;;;;;;;;;;;;;;6.38;90.98;95198.09;4935785;29;1159;-50
2023/04/10 01:54:34;;;;;;;;;;;;;;;6.55;90.27;95193.97;4935663;29;1237;-50
2023/04/10 01:57:03;;;;;;;;;;;;;;;6.48;89.96;95192.81;4936080;29;1052;-50
2023/04/10 01:59:30;;;;;;;;;;;;;;;6.49;90.06;95189.16;4935731;29;1040;-51
2023/04/10 02:02:00;;;;;;;;;;;;;;;6.64;89.69;95201.13;4935693;29;1320;-51
2023/04/10 02:04:26;;;;;;;;;;;;;;;6.79;89.39;95199.75;4935112;29;1930;-51
2023/04/10 02:07:10;;;;;;;;;;;;;;;6.76;89.14;95199.19;4935598;29;1031;-50
2023/04/10 02:09:44;;;;;;;;;;;;;;;6.93;88.19;95200.34;4935519;29;1285;-51
2023/04/10 02:12:15;;;;;;;;;;;;;;;7.10;87.52;95193.50;4935555;29;1083;-51
2023/04/10 02:14:43;;;;;;;;;;;;;;;7.21;86.53;95188.91;4935720;29;977;-51
2023/04/10 02:17:12;;;;;;;;;;;;;;;7.24;86.20;95187.75;4935496;29;1027;-51
2023/04/10 02:19:39;;;;;;;;;;;;;;;7.27;86.16;95182.19;4935739;29;988;-51
2023/04/10 02:22:05;;;;;;;;;;;;;;;7.38;85.50;95189.16;4935738;29;959;-51
2023/04/10 02:24:32;;;;;;;;;;;;;;;7.44;85.11;95185.94;4935556;29;1972;-51
2023/04/10 02:26:58;;;;;;;;;;;;;;;7.45;84.58;95184.97;4939448;29;1003;-51
2023/04/10 02:29:24;;;;;;;;;;;;;;;7.42;85.03;95188.75;4939230;29;968;-51
2023/04/10 02:31:50;;;;;;;;;;;;;;;7.55;84.17;95188.47;4939380;29;1072;-51
2023/04/10 02:34:16;;;;;;;;;;;;;;;7.48;84.31;95182.03;4938684;29;1187;-51
2023/04/10 02:36:42;;;;;;;;;;;;;;;7.53;84.30;95184.25;4939319;29;1112;-51
2023/04/10 02:39:08;;;;;;;;;;;;;;;7.47;84.44;95174.19;4939279;29;998;-51
2023/04/10 02:41:35;;;;;;;;;;;;;;;7.36;85.11;95181.34;4938711;29;1031;-51
2023/04/10 02:44:01;;;;;;;;;;;;;;;7.31;85.18;95177.41;4938743;29;1907;-51
2023/04/10 02:46:27;;;;;;;;;;;;;;;7.38;85.02;95173.19;4938714;29;1078;-51
2023/04/10 02:48:53;;;;;;;;;;;;;;;7.43;84.19;95176.28;4938679;29;1101;-51
2023/04/10 02:51:19;;;;;;;;;;;;;;;7.40;83.75;95179.25;4938918;29;975;-51
2023/04/10 02:53:45;;;;;;;;;;;;;;;7.36;84.28;95173.34;4921756;29;1595;-51
2023/04/10 02:56:11;;;;;;;;;;;;;;;7.40;84.07;95172.09;4938527;29;1031;-51
2023/04/10 02:58:38;;;;;;;;;;;;;;;7.45;83.78;95174.31;4938838;29;1006;-51
2023/04/10 03:01:06;;;;;;;;;;;;;;;7.40;83.94;95172.09;4938464;29;1089;-51
2023/04/10 03:03:32;;;;;;;;;;;;;;;7.46;83.25;95170.69;4938264;29;1977;-51
2023/04/10 03:05:58;;;;;;;;;;;;;;;7.43;83.53;95170.97;4938701;29;987;-50
2023/04/10 03:08:24;;;;;;;;;;;;;;;7.43;83.23;95174.44;4940811;29;1188;-51
2023/04/10 03:10:50;;;;;;;;;;;;;;;7.38;83.63;95170.53;4957727;29;1017;-51
2023/04/10 03:13:16;;;;;;;;;;;;;;;7.34;84.51;95167.34;4950150;29;2043;-51
2023/04/10 03:15:42;;;;;;;;;;;;;;;7.33;84.30;95170.13;4938564;29;1101;-50
2023/04/10 03:18:08;;;;;;;;;;;;;;;7.39;84.09;95174.88;4938311;29;1039;-50
2023/04/10 03:20:35;;;;;;;;;;;;;;;7.52;82.92;95170.13;4938112;29;1028;-50
2023/04/10 03:23:02;;;;;;;;;;;;;;;7.61;82.16;95169.25;4938127;29;2402;-50
2023/04/10 03:25:30;;;;;;;;;;;;;;;7.61;81.19;95177.25;4938282;29;964;-50
2023/04/10 03:27:56;;;;;;;;;;;;;;;7.49;81.60;95180.19;4938010;29;1103;-51
2023/04/10 03:30:22;;;;;;;;;;;;;;;7.48;81.48;95170.56;4938204;29;1054;-51
2023/04/10 03:32:48;;;;;;;;;;;;;;;7.48;80.89;95178.53;4937629;29;1230;-50
2023/04/10 03:35:14;;;;;;;;;;;;;;;7.35;82.43;95171.66;4937827;29;1025;-50
2023/04/10 03:37:41;;;;;;;;;;;;;;;7.37;82.48;95176.84;4937351;29;979;-50
2023/04/10 03:40:08;;;;;;;;;;;;;;;7.44;82.23;95172.66;4938133;29;1007;-50
2023/04/10 03:42:34;;;;;;;;;;;;;;;7.45;81.73;95174.31;4937280;29;1988;-50
2023/04/10 03:45:03;;;;;;;;;;;;;;;7.54;80.73;95178.78;4937706;29;2083;-51
2023/04/10 03:47:30;;;;;;;;;;;;;;;7.59;81.68;95179.22;4937825;29;1056;-51
2023/04/10 03:49:57;;;;;;;;;;;;;;;7.66;81.04;95181.28;4937941;29;1157;-52
2023/04/10 03:52:24;;;;;;;;;;;;;;;7.70;80.46;95172.03;4937748;29;981;-53
2023/04/10 03:54:50;;;;;;;;;;;;;;;7.70;80.74;95174.72;4937239;29;1205;-52
2023/04/10 03:57:18;;;;;;;;;;;;;;;7.82;79.77;95165.59;4937674;29;1001;-52
2023/04/10 03:59:44;;;;;;;;;;;;;;;7.79;80.27;95176.50;4937697;29;983;-52
2023/04/10 04:02:10;;;;;;;;;;;;;;;7.67;80.01;95177.66;4937260;29;1250;-52
2023/04/10 04:04:36;;;;;;;;;;;;;;;7.61;80.81;95179.06;4937029;29;1891;-52
2023/04/10 04:07:02;;;;;;;;;;;;;;;7.60;80.89;95172.91;4937540;29;1024;-52
2023/04/10 04:09:28;;;;;;;;;;;;;;;7.63;80.68;95174.44;4937154;29;1138;-52
2023/04/10 04:11:55;;;;;;;;;;;;;;;7.62;80.12;95178.06;4937134;29;1047;-52
2023/04/10 04:14:22;;;;;;;;;;;;;;;7.70;79.79;95183.56;4937194;29;1031;-52
2023/04/10 04:16:49;;;;;;;;;;;;;;;7.85;78.56;95172.44;4936959;29;1273;-53
2023/04/10 04:19:15;;;;;;;;;;;;;;;7.94;78.10;95174.25;4936994;29;1585;-53
2023/04/10 04:21:40;;;;;;;;;;;;;;;7.99;78.07;95177.31;4937324;29;1034;-52
2023/04/10 04:24:06;;;;;;;;;;;;;;;8.00;78.17;95173.66;4936801;29;2001;-52
2023/04/10 04:26:32;;;;;;;;;;;;;;;8.00;77.16;95178.97;4937107;29;967;-52
2023/04/10 04:28:59;;;;;;;;;;;;;;;8.05;77.28;95182.06;4937195;29;924;-52
2023/04/10 04:31:31;;;;;;;;;;;;;;;8.09;77.08;95170.13;4936953;29;1052;-53
2023/04/10 04:33:57;;;;;;;;;;;;;;;8.09;77.18;95171.97;4936616;29;1193;-52
2023/04/10 04:36:23;;;;;;;;;;;;;;;8.14;78.05;95177.69;4936862;29;1054;-52
2023/04/10 04:38:49;;;;;;;;;;;;;;;8.31;76.62;95186.72;4936598;29;1156;-52
2023/04/10 04:41:15;;;;;;;;;;;;;;;8.45;76.19;95186.28;4936830;29;1102;-53
2023/04/10 04:43:41;;;;;;;;;;;;;;;8.89;75.05;95180.28;4936633;29;1915;-52
2023/04/10 04:46:07;;;;;;;;;;;;;;;9.26;72.61;95182.84;4936542;29;1039;-53
2023/04/10 04:48:34;;;;;;;;;;;;;;;9.59;71.22;95183.13;4935748;29;1019;-53
2023/04/10 04:51:00;;;;;;;;;;;;;;;9.85;70.04;95185.84;4936826;29;1018;-53
2023/04/10 04:53:26;;;;;;;;;;;;;;;10.19;68.63;95185.06;4936414;29;1031;-53
2023/04/10 04:55:52;;;;;;;;;;;;;;;10.34;69.27;95183.53;4936494;29;1098;-52
2023/04/10 04:58:19;;;;;;;;;;;;;;;10.48;67.23;95192.78;4936655;29;1073;-52
2023/04/10 05:00:45;;;;;;;;;;;;;;;10.39;68.30;95188.38;4936267;29;1310;-53
2023/04/10 05:03:11;;;;;;;;;;;;;;;10.17;68.16;95181.72;4935975;29;1906;-53
2023/04/10 05:05:37;;;;;;;;;;;;;;;10.07;68.95;95184.50;4936556;29;991;-53
2023/04/10 05:08:03;;;;;;;;;;;;;;;9.99;68.59;95194.28;4936511;29;880;-50
2023/04/10 05:10:29;;;;;;;;;;;;;;;9.86;70.39;95186.69;4948275;29;1201;-50
2023/04/10 05:12:55;;;;;;;;;;;;;;;9.91;69.51;95197.75;4936262;29;1008;-50
2023/04/10 05:15:21;;;;;;;;;;;;;;;10.06;69.42;95190.84;4936053;29;1036;-50
2023/04/10 05:17:49;;;;;;;;;;;;;;;10.26;67.99;95191.47;4936298;29;1102;-50
2023/04/10 05:20:16;;;;;;;;;;;;;;;10.30;67.62;95197.31;4935992;29;1060;-50
2023/04/10 05:22:42;;;;;;;;;;;;;;;10.29;67.75;95196.47;4935983;29;1989;-50
2023/04/10 05:25:08;;;;;;;;;;;;;;;10.42;67.87;95196.09;4935779;29;1315;-50
2023/04/10 05:27:34;;;;;;;;;;;;;;;10.57;66.87;95193.66;4936267;29;1063;-50
2023/04/10 05:30:00;;;;;;;;;;;;;;;10.64;68.18;95199.19;4935886;29;1574;-49
2023/04/10 05:32:26;;;;;;;;;;;;;;;10.69;67.43;95197.72;4936183;29;987;-50
2023/04/10 05:34:52;;;;;;;;;;;;;;;10.90;66.15;95205.31;4935713;29;1075;-50
2023/04/10 05:37:18;;;;;;;;;;;;;;;11.03;67.31;95204.03;4935976;29;987;-50
2023/04/10 05:39:45;;;;;;;;;;;;;;;11.21;66.58;95210.09;4935813;29;1072;-50
2023/04/10 05:42:12;;;;;;;;;;;;;;;11.28;65.99;95216.47;4936058;29;1039;-50
2023/04/10 05:44:38;;;;;;;;;;;;;;;11.44;64.92;95217.50;4935559;29;1940;-50
2023/04/10 05:47:04;;;;;;;;;;;;;;;11.53;65.52;95213.81;4919015;29;1030;-50
2023/04/10 05:49:30;;;;;;;;;;;;;;;11.74;64.13;95210.66;4935883;29;980;-50
2023/04/10 05:51:56;;;;;;;;;;;;;;;11.87;63.26;95219.03;4936162;29;1298;-50
2023/04/10 05:54:22;;;;;;;;;;;;;;;11.89;63.30;95217.09;4935729;29;1260;-50
2023/04/10 05:56:48;;;;;;;;;;;;;;;11.85;63.86;95220.22;4936117;29;1201;-50
2023/04/10 05:59:14;;;;;;;;;;;;;;;11.83;63.17;95223.06;4935698;29;1048;-50
2023/04/10 06:01:40;;;;;;;;;;;;;;;12.07;64.32;95219.59;4939159;29;1100;-51
2023/04/10 06:04:07;;;;;;;;;;;;;;;12.49;60.92;95218.50;4938957;29;2013;-50
2023/04/10 06:06:33;;;;;;;;;;;;;;;12.45;61.66;95221.72;4939499;29;983;-50
2023/04/10 06:08:59;;;;;;;;;;;;;;;12.79;60.17;95225.97;4946827;29;1232;-51
2023/04/10 06:11:25;;;;;;;;;;;;;;;13.13;58.41;95223.00;4958831;29;1052;-50
2023/04/10 06:13:51;;;;;;;;;;;;;;;13.16;57.70;95219.94;4952150;29;1128;-50
2023/04/10 06:16:17;;;;;;;;;;;;;;;13.18;59.43;95215.22;4939208;29;1039;-52
2023/04/10 06:18:43;;;;;;;;;;;;;;;13.28;59.74;95212.34;4939257;29;1106;-52
2023/04/10 06:21:09;;;;;;;;;;;;;;;13.17;58.93;95210.88;4939517;29;1048;-52
2023/04/10 06:23:36;;;;;;;;;;;;;;;13.25;57.27;95213.53;4938843;29;1995;-52
2023/04/10 06:26:02;;;;;;;;;;;;;;;13.22;59.46;95213.03;4939454;29;1147;-52
2023/04/10 06:28:28;;;;;;;;;;;;;;;13.28;60.00;95223.09;4939484;29;951;-52
2023/04/10 06:30:54;;;;;;;;;;;;;;;13.38;57.28;95210.28;4922454;29;1002;-52
2023/04/10 06:33:21;;;;;;;;;;;;;;;13.47;58.33;95203.03;4922151;29;1053;-52
2023/04/10 06:35:47;;;;;;;;;;;;;;;13.64;58.40;95204.59;4939190;29;1197;-53
2023/04/10 06:38:13;;;;;;;;;;;;;;;13.48;59.92;95210.06;4938898;29;989;-52
2023/04/10 06:40:40;;;;;;;;;;;;;;;13.62;58.57;95219.19;4939223;29;1074;-51
2023/04/10 06:43:06;;;;;;;;;;;;;;;13.16;58.91;95208.38;4938961;29;1919;-51
2023/04/10 06:45:32;;;;;;;;;;;;;;;12.78;59.75;95219.75;4938439;29;1194;-52
2023/04/10 06:47:58;;;;;;;;;;;;;;;12.67;58.49;95223.66;4922202;29;998;-52
2023/04/10 06:50:24;;;;;;;;;;;;;;;12.92;58.78;95222.72;4938692;29;1114;-52
2023/04/10 06:52:52;;;;;;;;;;;;;;;12.59;59.78;95222.84;4921853;29;1218;-52
2023/04/10 06:55:18;;;;;;;;;;;;;;;12.20;62.54;95224.44;4938332;29;1061;-52
2023/04/10 06:57:44;;;;;;;;;;;;;;;12.13;62.91;95226.09;4938659;29;1071;-52
2023/04/10 07:00:11;;;;;;;;;;;;;;;12.14;61.96;95219.75;4938686;29;1055;-52
2023/04/10 07:02:37;;;;;;;;;;;;;;;11.95;63.08;95215.59;4938448;29;1911;-52
2023/04/10 07:05:03;;;;;;;;;;;;;;;11.76;61.96;95216.72;4938369;29;1438;-52
2023/04/10 07:07:30;;;;;;;;;;;;;;;11.55;64.60;95221.69;4938262;29;1046;-51
2023/04/10 07:09:56;;;;;;;;;;;;;;;11.59;64.64;95218.53;4938669;29;1223;-52
2023/04/10 07:12:22;;;;;;;;;;;;;;;11.52;62.99;95212.16;4937527;29;977;-51
2023/04/10 07:14:49;;;;;;;;;;;;;;;11.50;63.38;95209.66;4938288;29;1441;-52
2023/04/10 07:17:15;;;;;;;;;;;;;;;11.55;63.77;95211.81;4938115;29;1047;-52
2023/04/10 07:19:41;;;;;;;;;;;;;;;11.73;62.08;95222.41;4938497;29;1050;-52
2023/04/10 07:22:07;;;;;;;;;;;;;;;11.66;63.79;95221.38;4938133;29;1091;-51
2023/04/10 07:24:33;;;;;;;;;;;;;;;11.62;63.89;95220.03;4938070;29;1903;-52
2023/04/10 07:27:00;;;;;;;;;;;;;;;11.75;63.30;95224.91;4938059;29;1225;-51
2023/04/10 07:29:26;;;;;;;;;;;;;;;11.99;61.82;95219.59;4938207;29;977;-51
2023/04/10 07:31:52;;;;;;;;;;;;;;;12.05;62.19;95221.59;4938296;29;1034;-51
2023/04/10 07:34:18;;;;;;;;;;;;;;;12.33;62.11;95223.06;4937781;29;1883;-51
2023/04/10 07:36:46;;;;;;;;;;;;;;;12.95;60.90;95217.03;4937888;29;1098;-51
2023/04/10 07:39:12;;;;;;;;;;;;;;;13.70;58.85;95221.00;4938126;29;1063;-51
2023/04/10 07:41:38;;;;;;;;;;;;;;;13.48;58.39;95218.94;4937821;29;1047;-51
2023/04/10 07:44:04;;;;;;;;;;;;;;;13.85;55.84;95228.13;4937372;29;1911;-52
2023/04/10 07:46:30;;;;;;;;;;;;;;;13.88;57.66;95210.78;4937689;29;1067;-51
2023/04/10 07:48:56;;;;;;;;;;;;;;;14.30;57.04;95217.47;4936349;29;979;-49
2023/04/10 07:51:22;;;;;;;;;;;;;;;14.44;55.55;95216.69;4937512;29;1842;-50
2023/04/10 07:53:48;;;;;;;;;;;;;;;14.05;55.73;95214.19;4937808;29;1051;-50
2023/04/10 07:56:19;;;;;;;;;;;;;;;13.91;56.53;95201.53;4937755;29;1010;-50
2023/04/10 07:58:45;;;;;;;;;;;;;;;13.48;58.18;95204.69;4937566;29;1255;-50
2023/04/10 08:01:11;;;;;;;;;;;;;;;13.52;57.23;95208.69;4937171;29;1898;-50
2023/04/10 08:03:41;;;;;;;;;;;;;;;13.18;59.92;95212.53;4937212;29;1902;-50
2023/04/10 08:06:08;;;;;;;;;;;;;;;13.00;59.41;95207.44;4937166;29;981;-50
2023/04/10 08:08:38;;;;;;;;;;;;;;;12.77;62.89;95214.59;4940976;29;1850;-50
2023/04/10 08:11:06;;;;;;;;;;;;;;;12.67;59.82;95214.75;4956336;29;1390;-49
2023/04/10 08:13:32;;;;;;;;;;;;;;;12.48;62.18;95210.63;4956282;29;986;-50
2023/04/10 08:15:59;;;;;;;;;;;;;;;12.55;60.93;95211.63;4956268;29;1058;-50
2023/04/10 08:18:25;;;;;;;;;;;;;;;12.38;60.25;95207.31;4956335;29;1068;-50
2023/04/10 08:20:51;;;;;;;;;;;;;;;12.31;60.39;95209.81;4956081;29;1102;-50
2023/04/10 08:23:17;;;;;;;;;;;;;;;12.46;59.60;95218.00;4955714;28;1906;-50
2023/04/10 08:25:43;;;;;;;;;;;;;;;12.62;60.41;95207.25;4939068;29;1038;-50
2023/04/10 08:28:09;;;;;;;;;;;;;;;12.64;59.22;95210.59;4955945;29;1078;-50
2023/04/10 08:30:35;;;;;;;;;;;;;;;12.39;58.66;95209.00;4955976;29;969;-50
2023/04/10 08:33:01;;;;;;;;;;;;;;;12.35;59.92;95215.69;4955985;29;1009;-50
2023/04/10 08:35:27;;;;;;;;;;;;;;;12.27;61.22;95212.03;4955691;29;1095;-50
2023/04/10 08:37:53;;;;;;;;;;;;;;;12.08;62.00;95209.69;4956049;29;1046;-50
2023/04/10 08:40:19;;;;;;;;;;;;;;;12.09;62.79;95211.38;4955804;29;939;-50
2023/04/10 08:42:45;;;;;;;;;;;;;;;12.19;62.04;95200.47;4955678;29;1898;-50
2023/04/10 08:45:11;;;;;;;;;;;;;;;12.18;62.45;95196.97;4955814;29;1030;-50
2023/04/10 08:47:38;;;;;;;;;;;;;;;12.08;60.85;95198.97;4955731;29;1030;-50
2023/04/10 08:50:05;;;;;;;;;;;;;;;12.27;60.67;95203.13;4955554;29;1099;-50
2023/04/10 08:52:33;;;;;;;;;;;;;;;12.28;59.67;95202.97;4955747;29;955;-49
2023/04/10 08:55:01;;;;;;;;;;;;;;;12.40;59.66;95195.41;4956091;29;1023;-49
2023/04/10 08:57:28;;;;;;;;;;;;;;;12.44;60.01;95199.41;4938624;29;1029;-50
2023/04/10 08:59:54;;;;;;;;;;;;;;;12.43;59.21;95197.75;4955649;29;1047;-50
2023/04/10 09:02:20;;;;;;;;;;;;;;;12.47;58.76;95192.88;4955298;29;1301;-50
2023/04/10 09:04:48;;;;;;;;;;;;;;;12.59;58.88;95188.81;4955269;29;1935;-50
2023/04/10 09:07:15;;;;;;;;;;;;;;;12.56;58.47;95188.31;4955532;29;1106;-50
2023/04/10 09:09:41;;;;;;;;;;;;;;;12.53;58.81;95184.13;4942885;29;1244;-50
2023/04/10 09:12:07;;;;;;;;;;;;;;;12.56;58.80;95182.94;4936468;29;976;-50
2023/04/10 09:14:35;;;;;;;;;;;;;;;12.43;58.07;95180.81;4935961;29;1079;-50
2023/04/10 09:17:18;;;;;;;;;;;;;;;12.47;58.74;95179.47;4936537;29;1074;-50
2023/04/10 09:19:45;;;;;;;;;;;;;;;12.30;58.80;95176.81;4936265;29;1046;-50
2023/04/10 09:22:11;;;;;;;;;;;;;;;12.31;57.71;95177.66;4935923;29;1055;-50
2023/04/10 09:24:38;;;;;;;;;;;;;;;12.14;58.76;95174.19;4935991;29;2001;-49
2023/04/10 09:27:05;;;;;;;;;;;;;;;12.26;58.64;95180.03;4936034;29;976;-50
2023/04/10 09:29:41;;;;;;;;;;;;;;;12.30;57.65;95182.19;4935977;29;999;-50
2023/04/10 09:32:07;;;;;;;;;;;;;;;12.32;58.36;95173.16;4936054;29;1114;-50
2023/04/10 09:34:33;;;;;;;;;;;;;;;12.45;59.12;95166.22;4935436;29;1038;-50
2023/04/10 09:37:00;;;;;;;;;;;;;;;12.41;58.56;95170.28;4936023;29;1030;-49
2023/04/10 09:39:34;;;;;;;;;;;;;;;12.46;58.66;95175.09;4935965;29;1066;-49
2023/04/10 09:42:00;;;;;;;;;;;;;;;12.60;57.65;95170.88;4935840;29;1241;-49
2023/04/10 09:44:30;;;;;;;;;;;;;;;12.84;56.30;95161.88;4935554;29;1911;-50
2023/04/10 09:46:56;;;;;;;;;;;;;;;12.83;57.06;95155.69;4936017;29;983;-50
2023/04/10 09:49:22;;;;;;;;;;;;;;;12.86;56.09;95167.91;4935768;29;1106;-51
2023/04/10 09:51:48;;;;;;;;;;;;;;;12.91;56.27;95154.00;4936010;29;968;-50
2023/04/10 09:54:15;;;;;;;;;;;;;;;12.77;55.69;95161.75;4936066;29;1278;-51
2023/04/10 09:56:43;;;;;;;;;;;;;;;12.78;56.49;95158.06;4935804;29;1024;-50
2023/04/10 09:59:12;;;;;;;;;;;;;;;12.64;55.57;95161.47;4936023;29;975;-50
2023/04/10 10:05:41;;;;;;;;;;;;;;;12.56;53.80;95156.13;4931022;29;1302;-50
2023/04/10 10:08:08;;;;;;;;;;;;;;;12.75;54.86;95158.41;4935903;29;1177;-51
2023/04/10 10:10:36;;;;;;;;;;;;;;;12.68;52.42;95158.25;4955001;29;1046;-50
2023/04/10 10:13:03;;;;;;;;;;;;;;;12.56;51.54;95157.00;4955035;29;979;-50
2023/04/10 10:15:39;;;;;;;;;;;;;;;12.44;51.38;95164.53;4954815;29;1095;-50
2023/04/10 10:18:24;;;;;;;;;;;;;;;12.50;52.64;95160.34;4955138;29;1034;-51
2023/04/10 10:20:50;;;;;;;;;;;;;;;12.60;53.88;95155.63;4954952;29;998;-51
2023/04/10 10:23:18;;;;;;;;;;;;;;;12.59;52.96;95159.31;4954735;29;1939;-50
2023/04/10 10:25:45;;;;;;;;;;;;;;;12.56;51.37;95165.03;4955007;29;980;-51
2023/04/10 10:28:15;;;;;;;;;;;;;;;12.48;50.70;95167.72;4954570;29;1044;-51
2023/04/10 10:30:41;;;;;;;;;;;;;;;12.26;49.57;95170.13;4954148;29;1039;-51
2023/04/10 10:33:09;;;;;;;;;;;;;;;12.40;51.11;95165.06;4937670;29;1067;-51
2023/04/10 10:35:35;;;;;;;;;;;;;;;12.41;50.48;95162.22;4937582;29;1031;-51
2023/04/10 10:38:02;;;;;;;;;;;;;;;12.43;49.66;95164.75;4954875;29;1000;-55
2023/04/10 10:40:47;;;;;;;;;;;;;;;12.30;49.83;95160.72;4954552;29;1111;-51
2023/04/10 10:43:19;;;;;;;;;;;;;;;12.44;49.61;95156.50;4954493;29;1993;-51
2023/04/10 10:45:53;;;;;;;;;;;;;;;12.72;49.66;95144.50;4954958;28;1055;-51
2023/04/10 10:48:20;;;;;;;;;;;;;;;12.63;47.46;95149.06;4957944;29;1043;-51
2023/04/10 10:50:51;;;;;;;;;;;;;;;12.53;47.47;95143.91;4958371;29;1027;-51
2023/04/10 10:53:43;;;;;;;;;;;;;;;12.65;49.51;95139.00;4957816;29;1036;-50
2023/04/10 10:56:32;;;;;;;;;;;;;;;12.58;48.41;95141.56;4955292;29;2122;-50
2023/04/10 10:59:00;;;;;;;;;;;;;;;12.41;49.64;95134.59;4950274;29;1725;-51
2023/04/10 11:01:26;;;;;;;;;;;;;;;12.38;49.65;95141.09;4958053;29;1064;-51
2023/04/10 11:03:52;;;;;;;;;;;;;;;12.27;48.80;95147.69;4957414;29;1906;-51
2023/04/10 11:06:19;;;;;;;;;;;;;;;12.18;49.63;95138.00;4957572;29;1043;-51
2023/04/10 11:08:51;;;;;;;;;;;;;;;12.19;50.05;95131.63;4952427;29;1247;-50
2023/04/10 11:11:24;;;;;;;;;;;;;;;12.26;48.54;95134.47;4938341;29;1078;-51
2023/04/10 11:13:56;;;;;;;;;;;;;;;12.35;49.73;95127.22;4938422;29;1103;-51
2023/04/10 11:16:23;;;;;;;;;;;;;;;12.61;50.06;95117.06;4938612;29;1027;-51
2023/04/10 11:18:49;;;;;;;;;;;;;;;12.86;49.59;95123.16;4938509;29;1176;-51
2023/04/10 11:21:20;;;;;;;;;;;;;;;12.77;49.31;95121.53;4938509;29;1147;-51
2023/04/10 11:23:53;;;;;;;;;;;;;;;12.79;50.19;95110.63;4938257;29;1989;-51
2023/04/10 11:26:31;;;;;;;;;;;;;;;12.85;49.15;95109.91;4938020;29;1024;-51
2023/04/10 11:28:58;;;;;;;;;;;;;;;12.82;48.99;95111.06;4938359;29;932;-51
2023/04/10 11:31:25;;;;;;;;;;;;;;;12.77;49.06;95108.09;4938302;29;936;-51
2023/04/10 11:34:01;;;;;;;;;;;;;;;12.94;49.98;95097.25;4921137;29;1027;-51
2023/04/10 11:36:28;;;;;;;;;;;;;;;12.93;49.53;95107.16;4938045;29;1028;-51
2023/04/10 11:38:54;;;;;;;;;;;;;;;13.05;49.47;95103.09;4938258;29;1051;-51
2023/04/10 11:41:26;;;;;;;;;;;;;;;13.20;49.26;95102.31;4937974;29;1050;-51
2023/04/10 11:43:52;;;;;;;;;;;;;;;13.25;50.10;95103.44;4937790;29;2384;-51
2023/04/10 11:46:18;;;;;;;;;;;;;;;13.35;51.63;95105.09;4938137;29;975;-51
2023/04/10 11:48:45;;;;;;;;;;;;;;;13.37;48.89;95103.88;4937979;29;1312;-51
2023/04/10 11:51:12;;;;;;;;;;;;;;;13.39;48.40;95096.50;4920860;29;1102;-51
2023/04/10 11:53:39;;;;;;;;;;;;;;;13.42;47.64;95098.00;4937710;29;1110;-51
2023/04/10 11:56:13;;;;;;;;;;;;;;;13.54;48.28;95088.47;4937392;29;1067;-51
2023/04/10 11:58:39;;;;;;;;;;;;;;;13.61;49.44;95080.53;4937302;29;1037;-51
2023/04/10 12:01:05;;;;;;;;;;;;;;;13.86;46.51;95091.88;4937703;29;983;-51
2023/04/10 12:03:35;;;;;;;;;;;;;;;14.08;45.98;95084.78;4937516;29;1995;-51
2023/04/10 12:06:01;;;;;;;;;;;;;;;14.08;47.55;95078.59;4937340;29;1081;-50
2023/04/10 12:08:34;;;;;;;;;;;;;;;14.17;44.57;95080.13;4939409;29;1383;-50
2023/04/10 12:11:00;;;;;;;;;;;;;;;14.42;47.33;95065.41;4956643;29;1071;-51
2023/04/10 12:13:27;;;;;;;;;;;;;;;14.77;45.93;95065.63;4956461;29;2139;-50
2023/04/10 12:15:56;;;;;;;;;;;;;;;14.92;44.54;95064.78;4956703;29;1251;-50
2023/04/10 12:18:22;;;;;;;;;;;;;;;15.14;45.91;95057.53;4956252;29;1035;-51
2023/04/10 12:20:50;;;;;;;;;;;;;;;15.13;46.19;95050.50;4956300;29;1051;-50
2023/04/10 12:23:17;;;;;;;;;;;;;;;15.14;48.21;95046.78;4956106;29;1998;-50
2023/04/10 12:25:43;;;;;;;;;;;;;;;14.74;46.89;95038.28;4956391;29;968;-50
2023/04/10 12:28:15;;;;;;;;;;;;;;;14.50;48.40;95034.88;4956520;29;1050;-50
2023/04/10 12:30:47;;;;;;;;;;;;;;;14.38;47.85;95031.84;4956331;29;1050;-50
2023/04/10 12:33:19;;;;;;;;;;;;;;;14.26;46.74;95036.00;4955964;29;1122;-50
2023/04/10 12:35:45;;;;;;;;;;;;;;;13.97;47.64;95034.16;4955983;29;1110;-50
2023/04/10 12:38:11;;;;;;;;;;;;;;;13.86;47.42;95028.22;4939041;29;1583;-50
2023/04/10 12:40:39;;;;;;;;;;;;;;;13.72;48.09;95038.97;4938920;29;1214;-50
2023/04/10 12:43:05;;;;;;;;;;;;;;;13.62;45.74;95040.06;4956050;29;1997;-50
2023/04/10 12:45:43;;;;;;;;;;;;;;;13.75;47.24;95034.03;4955874;29;1023;-50
2023/04/10 12:48:09;;;;;;;;;;;;;;;13.58;49.69;95024.47;4955907;29;1045;-51
2023/04/10 12:50:46;;;;;;;;;;;;;;;13.55;50.25;95030.22;4956127;29;969;-51
2023/04/10 12:53:12;;;;;;;;;;;;;;;13.83;48.36;95033.97;4955943;29;1270;-50
2023/04/10 12:55:39;;;;;;;;;;;;;;;13.65;46.44;95036.16;4955801;29;964;-51
2023/04/10 12:58:21;;;;;;;;;;;;;;;13.80;45.87;95028.97;4938773;29;1026;-50
2023/04/10 13:00:47;;;;;;;;;;;;;;;13.70;43.92;95028.41;4955770;29;1536;-50
2023/04/10 13:03:13;;;;;;;;;;;;;;;13.84;44.60;95016.81;4955681;29;2355;-51
2023/04/10 13:05:39;;;;;;;;;;;;;;;13.88;44.38;95025.34;4955463;29;1317;-51
2023/04/10 13:08:06;;;;;;;;;;;;;;;14.01;44.12;95022.03;4955412;29;1191;-51